createdAt,value
2018-06-20T00:00:24.492Z,97.96
2018-06-20T00:01:24.563Z,98.05
2018-06-20T00:02:24.447Z,98.24
2018-06-20T00:03:24.462Z,98.34
2018-06-20T00:04:24.408Z,98.72
2018-06-20T00:05:24.476Z,98.82
2018-06-20T00:06:24.368Z,98.72
2018-06-20T00:07:24.424Z,98.82
2018-06-20T00:08:24.331Z,98.82
2018-06-20T00:09:24.399Z,98.54
2018-06-20T00:10:24.291Z,98.72
2018-06-20T00:11:24.312Z,98.82
2018-06-20T00:12:24.251Z,98.92
2018-06-20T00:13:24.326Z,98.92
2018-06-20T00:14:24.215Z,97.96
2018-06-20T00:15:24.235Z,97.96
2018-06-20T00:16:24.173Z,98.44
2018-06-20T00:17:24.246Z,98.54
2018-06-20T00:18:24.131Z,98.24
2018-06-20T00:19:24.150Z,98.34
2018-06-20T00:20:24.095Z,98.14
2018-06-20T00:21:24.164Z,98.05
2018-06-20T00:22:24.052Z,98.24
2018-06-20T00:23:25.101Z,98.72
2018-06-20T00:24:24.017Z,98.63
2018-06-20T00:25:24.088Z,98.92
2018-06-20T00:26:23.974Z,98.24
2018-06-20T00:27:24.000Z,98.63
2018-06-20T00:28:23.933Z,98.72
2018-06-20T00:29:24.013Z,98.82
2018-06-20T00:30:23.893Z,98.63
2018-06-20T00:31:23.925Z,98.54
2018-06-20T00:32:23.857Z,98.72
2018-06-20T00:33:23.938Z,98.24
2018-06-20T00:34:23.817Z,98.82
2018-06-20T00:35:23.851Z,99.21
2018-06-20T00:36:23.777Z,99.01
2018-06-20T00:37:23.862Z,98.92
2018-06-20T00:38:23.734Z,99.69
2018-06-20T00:39:23.768Z,99.59
2018-06-20T00:40:23.697Z,99.78
2018-06-20T00:41:23.782Z,99.11
2018-06-20T00:42:23.660Z,99.11
2018-06-20T00:43:23.704Z,99.49
2018-06-20T00:44:23.616Z,99.78
2018-06-20T00:45:23.701Z,99.30
2018-06-20T00:46:23.577Z,99.30
2018-06-20T00:47:23.613Z,99.21
2018-06-20T00:48:23.543Z,99.49
2018-06-20T00:49:23.624Z,99.78
2018-06-20T00:50:23.499Z,99.59
2018-06-20T00:51:23.535Z,99.78
2018-06-20T00:52:23.456Z,99.30
2018-06-20T00:53:23.544Z,99.44
2018-06-20T00:54:23.421Z,99.78
2018-06-20T00:55:23.456Z,99.40
2018-06-20T00:56:23.382Z,99.59
2018-06-20T00:57:23.465Z,99.01
2018-06-20T00:58:23.342Z,98.82
2018-06-20T00:59:23.381Z,99.49
2018-06-20T01:00:23.306Z,99.11
2018-06-20T01:01:23.390Z,98.82
2018-06-20T01:02:23.260Z,99.98
2018-06-20T01:03:23.303Z,99.49
2018-06-20T01:04:23.223Z,99.30
2018-06-20T01:05:23.313Z,99.59
2018-06-20T01:06:23.182Z,99.59
2018-06-20T01:07:23.224Z,99.78
2018-06-20T01:08:23.143Z,99.49
2018-06-20T01:09:23.236Z,99.69
2018-06-20T01:10:23.103Z,99.21
2018-06-20T01:11:23.148Z,99.59
2018-06-20T01:12:23.063Z,99.78
2018-06-20T01:13:23.060Z,99.78
2018-06-20T01:14:23.027Z,99.40
2018-06-20T01:15:23.074Z,99.49
2018-06-20T01:16:22.982Z,99.49
2018-06-20T01:17:22.985Z,99.78
2018-06-20T01:18:22.943Z,99.98
2018-06-20T01:19:22.993Z,99.99
2018-06-20T01:20:22.902Z,99.83
2018-06-20T01:21:23.006Z,99.88
2018-06-20T01:22:22.865Z,99.99
2018-06-20T01:23:22.916Z,99.78
2018-06-20T01:24:22.858Z,99.88
2018-06-20T01:25:22.828Z,99.93
2018-06-20T01:26:22.784Z,99.83
2018-06-20T01:27:22.837Z,99.98
2018-06-20T01:28:22.746Z,99.99
2018-06-20T01:29:22.751Z,99.99
2018-06-20T01:30:22.710Z,99.99
2018-06-20T01:31:22.760Z,99.99
2018-06-20T01:32:22.664Z,99.99
2018-06-20T01:33:22.671Z,99.99
2018-06-20T01:34:22.626Z,99.99
2018-06-20T01:35:22.682Z,99.99
2018-06-20T01:36:22.588Z,99.99
2018-06-20T01:37:22.596Z,99.99
2018-06-20T01:38:22.548Z,99.99
2018-06-20T01:39:22.609Z,99.99
2018-06-20T01:40:22.506Z,99.99
2018-06-20T01:41:22.521Z,99.99
2018-06-20T01:42:22.466Z,99.99
2018-06-20T01:43:22.533Z,99.99
2018-06-20T01:44:22.424Z,99.99
2018-06-20T01:45:22.446Z,99.99
2018-06-20T01:46:22.389Z,99.99
2018-06-20T01:47:22.454Z,99.99
2018-06-20T01:48:22.338Z,99.99
2018-06-20T01:49:22.365Z,99.99
2018-06-20T01:50:22.304Z,99.99
2018-06-20T01:51:22.376Z,99.99
2018-06-20T01:52:22.264Z,99.99
2018-06-20T01:53:22.289Z,99.99
2018-06-20T01:54:22.225Z,99.99
2018-06-20T01:55:23.219Z,99.99
2018-06-20T01:56:22.184Z,99.99
2018-06-20T01:57:22.210Z,99.99
2018-06-20T01:58:22.147Z,99.99
2018-06-20T01:59:22.218Z,99.99
2018-06-20T02:00:22.111Z,99.99
2018-06-20T02:01:22.127Z,99.99
2018-06-20T02:02:22.065Z,99.99
2018-06-20T02:03:22.140Z,99.99
2018-06-20T02:04:22.024Z,99.99
2018-06-20T02:05:22.051Z,99.99
2018-06-20T02:06:21.982Z,99.99
2018-06-20T02:07:22.067Z,99.99
2018-06-20T02:08:21.954Z,99.99
2018-06-20T02:09:21.974Z,99.99
2018-06-20T02:10:21.907Z,99.99
2018-06-20T02:11:21.988Z,99.99
2018-06-20T02:12:21.862Z,99.99
2018-06-20T02:13:22.922Z,99.99
2018-06-20T02:14:21.820Z,99.99
2018-06-20T02:15:21.911Z,99.99
2018-06-20T02:16:21.781Z,99.99
2018-06-20T02:17:21.822Z,99.99
2018-06-20T02:18:21.743Z,99.99
2018-06-20T02:19:21.834Z,99.99
2018-06-20T02:20:21.703Z,99.99
2018-06-20T02:21:21.745Z,99.99
2018-06-20T02:22:21.660Z,99.99
2018-06-20T02:23:21.656Z,99.99
2018-06-20T02:24:21.619Z,99.99
2018-06-20T02:25:21.669Z,99.99
2018-06-20T02:26:21.583Z,99.99
2018-06-20T02:27:21.580Z,99.99
2018-06-20T02:28:21.540Z,99.99
2018-06-20T02:29:21.594Z,99.99
2018-06-20T02:30:21.500Z,99.99
2018-06-20T02:31:21.500Z,99.99
2018-06-20T02:32:21.460Z,99.99
2018-06-20T02:33:21.518Z,99.99
2018-06-20T02:34:21.418Z,99.99
2018-06-20T02:35:21.421Z,99.99
2018-06-20T02:36:21.379Z,99.99
2018-06-20T02:37:21.429Z,99.99
2018-06-20T02:38:21.338Z,99.99
2018-06-20T02:39:21.345Z,99.99
2018-06-20T02:40:21.295Z,99.99
2018-06-20T02:41:21.355Z,99.99
2018-06-20T02:42:21.256Z,99.99
2018-06-20T02:43:22.290Z,99.99
2018-06-20T02:44:21.221Z,99.99
2018-06-20T02:45:21.279Z,99.99
2018-06-20T02:46:21.176Z,99.99
2018-06-20T02:47:21.189Z,99.99
2018-06-20T02:48:21.133Z,99.99
2018-06-20T02:49:21.198Z,99.99
2018-06-20T02:50:21.092Z,99.99
2018-06-20T02:51:21.110Z,99.99
2018-06-20T02:52:21.051Z,99.99
2018-06-20T02:53:21.121Z,99.99
2018-06-20T02:54:21.015Z,99.99
2018-06-20T02:55:21.032Z,99.99
2018-06-20T02:56:20.968Z,99.99
2018-06-20T02:57:21.204Z,99.99
2018-06-20T02:58:21.219Z,99.99
2018-06-20T02:59:20.958Z,99.99
2018-06-20T03:00:20.925Z,99.99
2018-06-20T03:01:20.972Z,99.99
2018-06-20T03:02:20.849Z,99.99
2018-06-20T03:03:20.880Z,99.99
2018-06-20T03:04:20.807Z,99.99
2018-06-20T03:05:20.891Z,99.99
2018-06-20T03:06:20.769Z,99.99
2018-06-20T03:07:20.802Z,99.99
2018-06-20T03:08:20.729Z,99.99
2018-06-20T03:09:20.816Z,99.99
2018-06-20T03:10:20.689Z,99.99
2018-06-20T03:11:20.727Z,99.99
2018-06-20T03:12:20.642Z,99.99
2018-06-20T03:13:20.736Z,99.99
2018-06-20T03:14:20.613Z,99.99
2018-06-20T03:15:20.652Z,99.99
2018-06-20T03:16:20.566Z,99.99
2018-06-20T03:17:20.558Z,99.99
2018-06-20T03:18:20.527Z,99.99
2018-06-20T03:19:20.571Z,99.99
2018-06-20T03:20:20.483Z,99.99
2018-06-20T03:21:21.508Z,99.99
2018-06-20T03:22:20.443Z,99.99
2018-06-20T03:23:20.492Z,99.99
2018-06-20T03:24:20.416Z,99.99
2018-06-20T03:25:20.403Z,99.99
2018-06-20T03:26:20.366Z,99.99
2018-06-20T03:27:20.474Z,99.99
2018-06-20T03:28:20.325Z,99.99
2018-06-20T03:29:20.324Z,99.99
2018-06-20T03:30:20.281Z,99.99
2018-06-20T03:31:20.335Z,99.99
2018-06-20T03:32:20.239Z,99.99
2018-06-20T03:33:20.245Z,99.99
2018-06-20T03:34:20.202Z,99.99
2018-06-20T03:35:20.259Z,99.99
2018-06-20T03:36:20.160Z,99.99
2018-06-20T03:37:20.168Z,99.99
2018-06-20T03:38:20.118Z,99.99
2018-06-20T03:39:20.182Z,99.99
2018-06-20T03:40:20.075Z,99.99
2018-06-20T03:41:20.092Z,99.99
2018-06-20T03:42:20.033Z,99.99
2018-06-20T03:43:20.102Z,99.99
2018-06-20T03:44:19.999Z,99.99
2018-06-20T03:45:20.014Z,99.99
2018-06-20T03:46:19.955Z,99.99
2018-06-20T03:47:20.026Z,99.99
2018-06-20T03:48:19.915Z,99.99
2018-06-20T03:49:19.937Z,99.99
2018-06-20T03:50:19.872Z,99.99
2018-06-20T03:51:19.948Z,99.99
2018-06-20T03:52:19.830Z,99.99
2018-06-20T03:53:19.860Z,99.99
2018-06-20T03:54:19.789Z,99.99
2018-06-20T03:55:19.871Z,99.99
2018-06-20T03:56:19.755Z,99.99
2018-06-20T03:57:19.782Z,99.99
2018-06-20T03:58:19.713Z,99.99
2018-06-20T03:59:19.803Z,99.99
2018-06-20T04:00:19.667Z,99.99
2018-06-20T04:01:19.708Z,99.99
2018-06-20T04:02:19.683Z,99.99
2018-06-20T04:03:19.722Z,99.99
2018-06-20T04:04:19.582Z,99.99
2018-06-20T04:05:19.631Z,99.99
2018-06-20T04:06:19.545Z,99.99
2018-06-20T04:07:19.533Z,99.99
2018-06-20T04:08:19.539Z,99.99
2018-06-20T04:09:19.556Z,99.99
2018-06-20T04:10:19.461Z,99.99
2018-06-20T04:11:19.466Z,99.99
2018-06-20T04:12:19.420Z,99.99
2018-06-20T04:13:19.475Z,99.99
2018-06-20T04:14:19.385Z,99.99
2018-06-20T04:15:19.387Z,99.99
2018-06-20T04:16:19.342Z,99.99
2018-06-20T04:17:19.399Z,99.99
2018-06-20T04:18:19.328Z,99.99
2018-06-20T04:19:19.311Z,99.99
2018-06-20T04:20:19.261Z,99.99
2018-06-20T04:21:19.325Z,99.99
2018-06-20T04:22:19.218Z,99.99
2018-06-20T04:23:19.230Z,99.99
2018-06-20T04:24:19.181Z,99.99
2018-06-20T04:25:19.244Z,99.99
2018-06-20T04:26:19.140Z,99.99
2018-06-20T04:27:19.156Z,99.99
2018-06-20T04:28:19.091Z,99.99
2018-06-20T04:29:19.168Z,99.99
2018-06-20T04:30:19.053Z,99.99
2018-06-20T04:31:19.079Z,99.99
2018-06-20T04:32:19.009Z,99.99
2018-06-20T04:33:19.093Z,99.99
2018-06-20T04:34:18.968Z,99.99
2018-06-20T04:35:19.004Z,99.99
2018-06-20T04:36:18.925Z,99.99
2018-06-20T04:37:19.016Z,99.99
2018-06-20T04:38:18.889Z,99.99
2018-06-20T04:39:18.926Z,99.99
2018-06-20T04:40:18.846Z,99.99
2018-06-20T04:41:18.933Z,99.99
2018-06-20T04:42:18.806Z,99.99
2018-06-20T04:43:18.840Z,99.99
2018-06-20T04:44:18.763Z,99.99
2018-06-20T04:45:18.851Z,99.99
2018-06-20T04:46:18.724Z,99.99
2018-06-20T04:47:18.762Z,99.99
2018-06-20T04:48:18.683Z,99.99
2018-06-20T04:49:18.774Z,99.99
2018-06-20T04:50:18.643Z,99.99
2018-06-20T04:51:18.687Z,99.99
2018-06-20T04:52:18.605Z,99.99
2018-06-20T04:53:18.598Z,99.99
2018-06-20T04:54:18.561Z,99.99
2018-06-20T04:55:18.540Z,99.99
2018-06-20T04:56:18.663Z,99.99
2018-06-20T04:57:18.499Z,99.99
2018-06-20T04:58:18.577Z,99.99
2018-06-20T04:59:18.459Z,99.99
2018-06-20T05:00:18.430Z,99.99
2018-06-20T05:01:18.417Z,99.99
2018-06-20T05:02:18.499Z,99.99
2018-06-20T05:03:18.374Z,99.99
2018-06-20T05:04:18.608Z,99.99
2018-06-20T05:05:18.334Z,99.99
2018-06-20T05:06:18.428Z,99.99
2018-06-20T05:07:18.294Z,99.99
2018-06-20T05:08:18.338Z,99.99
2018-06-20T05:09:18.255Z,99.99
2018-06-20T05:10:18.351Z,99.99
2018-06-20T05:11:18.209Z,99.99
2018-06-20T05:12:18.277Z,99.99
2018-06-20T05:13:18.171Z,99.99
2018-06-20T05:14:18.288Z,99.99
2018-06-20T05:15:18.132Z,99.99
2018-06-20T05:16:18.195Z,99.99
2018-06-20T05:17:18.087Z,99.99
2018-06-20T05:18:18.114Z,99.99
2018-06-20T05:19:18.045Z,99.99
2018-06-20T05:20:18.142Z,99.99
2018-06-20T05:21:18.003Z,99.99
2018-06-20T05:22:18.143Z,99.99
2018-06-20T05:23:17.969Z,99.99
2018-06-20T05:24:18.052Z,99.99
2018-06-20T05:25:17.927Z,99.99
2018-06-20T05:26:18.065Z,99.99
2018-06-20T05:27:17.881Z,99.99
2018-06-20T05:28:17.972Z,99.99
2018-06-20T05:29:17.854Z,99.99
2018-06-20T05:30:17.973Z,99.99
2018-06-20T05:31:17.801Z,99.99
2018-06-20T05:32:17.911Z,99.99
2018-06-20T05:33:17.767Z,99.99
2018-06-20T05:34:17.925Z,99.99
2018-06-20T05:35:17.723Z,99.99
2018-06-20T05:36:17.833Z,99.99
2018-06-20T05:37:17.692Z,99.99
2018-06-20T05:38:17.850Z,99.99
2018-06-20T05:39:17.640Z,99.99
2018-06-20T05:40:17.761Z,99.99
2018-06-20T05:41:17.595Z,99.99
2018-06-20T05:42:17.766Z,99.99
2018-06-20T05:43:17.554Z,99.99
2018-06-20T05:44:17.680Z,99.99
2018-06-20T05:45:17.509Z,99.99
2018-06-20T05:46:17.697Z,99.99
2018-06-20T05:47:17.470Z,99.99
2018-06-20T05:48:17.609Z,99.99
2018-06-20T05:49:17.429Z,99.99
2018-06-20T05:50:17.618Z,99.99
2018-06-20T05:51:17.396Z,99.99
2018-06-20T05:52:17.530Z,99.99
2018-06-20T05:53:17.345Z,99.99
2018-06-20T05:54:17.551Z,99.99
2018-06-20T05:55:17.311Z,99.99
2018-06-20T05:56:17.456Z,99.99
2018-06-20T05:57:17.265Z,99.99
2018-06-20T05:58:17.477Z,99.99
2018-06-20T05:59:17.229Z,99.99
2018-06-20T06:00:17.389Z,99.99
2018-06-20T06:01:17.190Z,99.99
2018-06-20T06:02:17.191Z,99.99
2018-06-20T06:03:17.152Z,99.99
2018-06-20T06:04:17.310Z,99.99
2018-06-20T06:05:17.160Z,99.99
2018-06-20T06:06:17.224Z,99.99
2018-06-20T06:07:17.072Z,99.99
2018-06-20T06:08:17.042Z,99.26
2018-06-20T06:09:17.142Z,99.54
2018-06-20T06:10:17.005Z,99.99
2018-06-20T06:11:17.051Z,99.93
2018-06-20T06:12:16.963Z,99.99
2018-06-20T06:13:17.064Z,99.99
2018-06-20T06:14:16.933Z,99.99
2018-06-20T06:15:16.974Z,99.99
2018-06-20T06:16:16.891Z,99.99
2018-06-20T06:17:16.986Z,99.69
2018-06-20T06:18:16.849Z,99.02
2018-06-20T06:19:16.897Z,98.44
2018-06-20T06:20:16.805Z,97.76
2018-06-20T06:21:16.909Z,98.34
2018-06-20T06:22:16.766Z,97.57
2018-06-20T06:23:16.835Z,97.57
2018-06-20T06:24:16.725Z,98.34
2018-06-20T06:25:16.838Z,99.21
2018-06-20T06:26:16.682Z,99.21
2018-06-20T06:27:16.748Z,99.21
2018-06-20T06:28:16.646Z,98.34
2018-06-20T06:29:16.763Z,98.34
2018-06-20T06:30:16.608Z,98.92
2018-06-20T06:31:16.676Z,98.24
2018-06-20T06:32:16.571Z,98.24
2018-06-20T06:33:16.689Z,97.76
2018-06-20T06:34:16.536Z,96.89
2018-06-20T06:35:16.601Z,96.99
2018-06-20T06:36:16.493Z,96.61
2018-06-20T06:37:16.618Z,97.19
2018-06-20T06:38:16.448Z,97.86
2018-06-20T06:39:16.549Z,97.28
2018-06-20T06:40:16.409Z,96.89
2018-06-20T06:41:16.541Z,97.09
2018-06-20T06:42:16.372Z,96.99
2018-06-20T06:43:16.451Z,97.28
2018-06-20T06:44:16.333Z,97.28
2018-06-20T06:45:16.365Z,97.28
2018-06-20T06:46:16.292Z,97.67
2018-06-20T06:47:16.382Z,96.89
2018-06-20T06:48:16.257Z,97.09
2018-06-20T06:49:16.292Z,97.67
2018-06-20T06:50:16.214Z,97.86
2018-06-20T06:51:16.305Z,96.99
2018-06-20T06:52:16.175Z,96.56
2018-06-20T06:53:16.215Z,96.08
2018-06-20T06:54:16.137Z,96.08
2018-06-20T06:55:16.229Z,96.56
2018-06-20T06:58:02.764Z,95.11
2018-06-20T06:58:47.719Z,94.82
2018-06-20T07:00:40.763Z,94.73
2018-06-20T07:01:40.574Z,95.21
2018-06-20T07:02:40.661Z,94.54
2018-06-20T07:03:40.541Z,93.76
2018-06-20T07:04:40.664Z,93.57
2018-06-20T07:05:40.497Z,93.19
2018-06-20T07:06:40.577Z,93.86
2018-06-20T07:07:40.463Z,92.51
2018-06-20T07:08:40.589Z,93.86
2018-06-20T07:09:40.419Z,93.91
2018-06-20T07:10:40.501Z,93.81
2018-06-20T07:11:40.379Z,93.71
2018-06-20T07:12:40.519Z,92.65
2018-06-20T07:13:40.341Z,92.36
2018-06-20T07:14:40.426Z,92.85
2018-06-20T07:15:40.303Z,92.94
2018-06-20T07:16:40.442Z,92.17
2018-06-20T07:17:40.263Z,92.13
2018-06-20T07:18:40.353Z,92.94
2018-06-20T07:19:40.228Z,92.65
2018-06-20T07:20:40.369Z,92.56
2018-06-20T07:21:40.189Z,92.46
2018-06-20T07:22:40.279Z,92.94
2018-06-20T07:23:40.150Z,91.20
2018-06-20T07:24:40.298Z,90.15
2018-06-20T07:25:40.112Z,91.50
2018-06-20T07:26:40.206Z,91.30
2018-06-20T07:27:40.083Z,90.53
2018-06-20T07:28:40.222Z,90.05
2018-06-20T07:29:40.037Z,89.47
2018-06-20T07:30:40.198Z,90.24
2018-06-20T07:31:40.000Z,90.82
2018-06-20T07:32:40.151Z,89.86
2018-06-20T07:33:39.959Z,89.42
2018-06-20T07:34:40.057Z,89.51
2018-06-20T07:35:40.134Z,89.51
2018-06-20T07:36:40.071Z,89.81
2018-06-20T07:37:39.885Z,89.56
2018-06-20T07:38:39.983Z,89.56
2018-06-20T07:39:39.846Z,87.92
2018-06-20T07:40:40.003Z,88.31
2018-06-20T07:41:39.810Z,89.65
2018-06-20T07:42:39.914Z,88.79
2018-06-20T07:43:39.778Z,87.92
2018-06-20T07:44:39.927Z,88.98
2018-06-20T07:45:39.731Z,89.56
2018-06-20T07:46:39.838Z,88.31
2018-06-20T07:47:39.693Z,88.79
2018-06-20T07:48:40.881Z,87.73
2018-06-20T07:49:39.655Z,86.47
2018-06-20T07:50:39.777Z,87.05
2018-06-20T07:51:39.620Z,87.34
2018-06-20T07:52:39.785Z,87.82
2018-06-20T07:53:39.580Z,87.73
2018-06-20T07:54:39.688Z,88.11
2018-06-20T07:55:39.543Z,87.73
2018-06-20T07:56:39.708Z,86.76
2018-06-20T07:57:39.505Z,86.28
2018-06-20T07:58:39.620Z,86.32
2018-06-20T07:59:39.467Z,85.64
2018-06-20T08:00:39.666Z,84.88
2018-06-20T08:01:39.431Z,86.32
2018-06-20T08:02:39.540Z,86.13
2018-06-20T08:03:39.394Z,85.74
2018-06-20T08:04:39.560Z,84.20
2018-06-20T08:05:39.376Z,84.30
2018-06-20T08:06:39.472Z,83.81
2018-06-20T08:07:39.321Z,84.10
2018-06-20T08:08:39.380Z,84.83
2018-06-20T08:09:39.286Z,84.74
2018-06-20T08:10:39.286Z,85.60
2018-06-20T08:11:39.261Z,85.60
2018-06-20T08:12:39.308Z,85.80
2018-06-20T08:13:39.217Z,86.66
2018-06-20T08:14:39.324Z,86.18
2018-06-20T08:15:39.175Z,85.60
2018-06-20T08:16:39.228Z,86.28
2018-06-20T08:17:39.138Z,86.96
2018-06-20T08:18:39.248Z,86.96
2018-06-20T08:19:39.098Z,86.47
2018-06-20T08:20:39.158Z,85.50
2018-06-20T08:21:39.065Z,85.45
2018-06-20T08:22:39.172Z,85.64
2018-06-20T08:23:39.032Z,82.94
2018-06-20T08:24:39.084Z,83.62
2018-06-20T08:25:39.005Z,82.40
2018-06-20T08:26:39.124Z,83.37
2018-06-20T08:27:38.949Z,83.75
2018-06-20T08:28:39.009Z,84.57
2018-06-20T08:29:38.960Z,83.99
2018-06-20T08:30:39.023Z,82.54
2018-06-20T08:31:38.883Z,81.96
2018-06-20T08:32:38.926Z,81.09
2018-06-20T08:33:38.844Z,81.48
2018-06-20T08:34:38.942Z,81.57
2018-06-20T08:35:38.810Z,81.48
2018-06-20T08:36:38.858Z,81.57
2018-06-20T08:37:38.774Z,80.90
2018-06-20T08:38:38.874Z,80.57
2018-06-20T08:39:38.742Z,81.82
2018-06-20T08:40:38.786Z,82.31
2018-06-20T08:41:38.698Z,82.21
2018-06-20T08:42:38.799Z,81.73
2018-06-20T08:43:38.667Z,81.63
2018-06-20T08:44:38.711Z,81.88
2018-06-20T08:45:38.631Z,81.68
2018-06-20T08:46:38.722Z,82.17
2018-06-20T08:47:38.593Z,83.56
2018-06-20T08:48:38.636Z,81.63
2018-06-20T08:49:38.558Z,81.92
2018-06-20T08:50:38.650Z,82.25
2018-06-20T08:51:38.526Z,83.70
2018-06-20T08:52:38.564Z,85.00
2018-06-20T08:53:38.484Z,81.90
2018-06-20T08:54:38.602Z,82.53
2018-06-20T08:55:38.447Z,82.04
2018-06-20T08:56:38.591Z,80.79
2018-06-20T08:57:38.415Z,78.66
2018-06-20T08:58:38.503Z,77.40
2018-06-20T08:59:38.379Z,79.14
2018-06-20T09:00:38.516Z,79.62
2018-06-20T09:01:38.348Z,80.11
2018-06-20T09:02:38.433Z,79.14
2018-06-20T09:03:38.306Z,78.81
2018-06-20T09:04:38.444Z,79.49
2018-06-20T09:05:38.277Z,80.46
2018-06-20T09:06:38.364Z,78.81
2018-06-20T09:07:38.242Z,79.39
2018-06-20T09:08:38.375Z,80.07
2018-06-20T09:09:38.202Z,79.10
2018-06-20T09:10:38.279Z,80.74
2018-06-20T09:11:38.167Z,79.52
2018-06-20T09:12:38.283Z,79.52
2018-06-20T09:13:38.134Z,80.01
2018-06-20T09:14:38.207Z,79.47
2018-06-20T09:15:38.098Z,78.74
2018-06-20T09:16:38.218Z,77.19
2018-06-20T09:17:38.068Z,77.22
2018-06-20T09:18:38.130Z,75.67
2018-06-20T09:19:38.032Z,77.12
2018-06-20T09:20:38.146Z,76.29
2018-06-20T09:21:37.997Z,75.81
2018-06-20T09:22:38.159Z,76.78
2018-06-20T09:23:37.961Z,75.51
2018-06-20T09:24:38.072Z,74.45
2018-06-20T09:25:37.931Z,76.19
2018-06-20T09:26:38.083Z,75.81
2018-06-20T09:27:37.898Z,77.20
2018-06-20T09:28:37.998Z,75.36
2018-06-20T09:29:37.865Z,74.58
2018-06-20T09:30:38.009Z,73.55
2018-06-20T09:31:37.825Z,72.77
2018-06-20T09:32:37.924Z,74.00
2018-06-20T09:33:37.793Z,73.03
2018-06-20T09:34:37.862Z,72.77
2018-06-20T09:35:37.761Z,72.49
2018-06-20T09:36:37.853Z,71.32
2018-06-20T09:37:37.730Z,72.16
2018-06-20T09:38:37.830Z,73.07
2018-06-20T09:39:37.763Z,71.58
2018-06-20T09:40:37.896Z,69.73
2018-06-20T09:41:37.668Z,72.06
2018-06-20T09:42:37.656Z,73.26
2018-06-20T09:43:37.632Z,73.88
2018-06-20T09:44:37.866Z,71.88
2018-06-20T09:45:37.603Z,70.12
2018-06-20T09:46:37.717Z,71.16
2018-06-20T09:47:37.582Z,71.26
2018-06-20T09:48:37.741Z,71.36
2018-06-20T09:49:37.552Z,69.90
2018-06-20T09:50:37.656Z,71.32
2018-06-20T09:51:37.512Z,71.12
2018-06-20T09:52:37.669Z,71.12
2018-06-20T09:53:37.485Z,70.93
2018-06-20T09:54:37.679Z,72.67
2018-06-20T09:55:37.438Z,71.42
2018-06-20T09:56:38.450Z,72.19
2018-06-20T09:57:37.413Z,70.73
2018-06-20T09:58:37.600Z,72.91
2018-06-20T09:59:37.379Z,69.96
2018-06-20T10:00:37.573Z,70.45
2018-06-20T10:01:37.417Z,71.16
2018-06-20T10:02:37.525Z,71.88
2018-06-20T10:03:37.322Z,70.81
2018-06-20T10:04:37.441Z,69.96
2018-06-20T10:05:37.292Z,68.90
2018-06-20T10:06:37.458Z,69.67
2018-06-20T10:07:37.285Z,68.48
2018-06-20T10:08:37.469Z,68.67
2018-06-20T10:09:37.228Z,69.70
2018-06-20T10:10:37.275Z,69.60
2018-06-20T10:11:37.199Z,69.51
2018-06-20T10:12:37.289Z,69.60
2018-06-20T10:13:37.171Z,69.80
2018-06-20T10:14:37.199Z,70.19
2018-06-20T10:15:37.143Z,69.70
2018-06-20T10:16:37.221Z,70.29
2018-06-20T10:17:37.139Z,70.19
2018-06-20T10:18:37.236Z,69.70
2018-06-20T10:19:37.085Z,68.87
2018-06-20T10:20:37.147Z,69.35
2018-06-20T10:21:37.063Z,67.70
2018-06-20T10:22:37.162Z,68.67
2018-06-20T10:23:37.018Z,67.70
2018-06-20T10:24:37.077Z,67.50
2018-06-20T10:25:37.002Z,67.02
2018-06-20T10:26:37.085Z,67.83
2018-06-20T10:27:36.961Z,66.27
2018-06-20T10:28:36.993Z,66.76
2018-06-20T10:29:36.938Z,68.12
2018-06-20T10:30:37.007Z,67.63
2018-06-20T10:31:36.905Z,66.96
2018-06-20T10:32:37.017Z,66.60
2018-06-20T10:33:36.879Z,66.83
2018-06-20T10:34:38.000Z,66.79
2018-06-20T10:35:36.843Z,65.72
2018-06-20T10:36:36.953Z,64.36
2018-06-20T10:37:36.820Z,66.73
2018-06-20T10:38:36.858Z,66.34
2018-06-20T10:39:36.789Z,66.56
2018-06-20T10:40:36.867Z,65.59
2018-06-20T10:41:36.759Z,64.91
2018-06-20T10:42:36.882Z,65.20
2018-06-20T10:43:36.732Z,63.84
2018-06-20T10:44:36.793Z,66.69
2018-06-20T10:45:36.702Z,64.20
2018-06-20T10:46:36.811Z,63.12
2018-06-20T10:47:36.677Z,63.02
2018-06-20T10:48:36.720Z,61.93
2018-06-20T10:49:36.653Z,63.16
2018-06-20T10:50:36.735Z,64.72
2018-06-20T10:51:36.622Z,63.65
2018-06-20T10:52:36.759Z,63.35
2018-06-20T10:53:36.591Z,63.75
2018-06-20T10:54:36.661Z,62.93
2018-06-20T10:55:36.562Z,64.98
2018-06-20T10:56:36.677Z,65.33
2018-06-20T10:57:36.538Z,65.92
2018-06-20T10:58:36.587Z,66.99
2018-06-20T10:59:36.509Z,66.11
2018-06-20T11:00:36.618Z,65.43
2018-06-20T11:01:36.481Z,66.93
2018-06-20T11:02:36.614Z,66.14
2018-06-20T11:03:36.456Z,64.81
2018-06-20T11:04:36.527Z,64.29
2018-06-20T11:05:36.427Z,64.29
2018-06-20T11:06:36.542Z,64.49
2018-06-20T11:07:36.400Z,64.17
2018-06-20T11:08:36.388Z,65.04
2018-06-20T11:09:36.393Z,64.46
2018-06-20T11:10:36.466Z,65.37
2018-06-20T11:11:36.346Z,65.43
2018-06-20T11:12:36.481Z,66.11
2018-06-20T11:13:36.320Z,64.85
2018-06-20T11:14:36.304Z,65.23
2018-06-20T11:15:36.400Z,64.75
2018-06-20T11:16:36.278Z,64.75
2018-06-20T11:17:36.414Z,66.79
2018-06-20T11:18:36.250Z,65.66
2018-06-20T11:19:36.324Z,64.52
2018-06-20T11:20:36.223Z,63.75
2018-06-20T11:21:36.340Z,63.45
2018-06-20T11:22:36.195Z,64.72
2018-06-20T11:23:36.354Z,63.78
2018-06-20T11:24:36.167Z,63.19
2018-06-20T11:25:36.267Z,63.58
2018-06-20T11:26:36.140Z,62.32
2018-06-20T11:27:36.284Z,61.90
2018-06-20T11:28:36.119Z,63.55
2018-06-20T11:29:36.201Z,62.87
2018-06-20T11:30:36.088Z,63.97
2018-06-20T11:31:36.208Z,64.17
2018-06-20T11:32:36.062Z,62.41
2018-06-20T11:33:36.222Z,63.87
2018-06-20T11:34:36.035Z,62.93
2018-06-20T11:35:36.136Z,62.35
2018-06-20T11:36:36.014Z,61.18
2018-06-20T11:37:36.151Z,62.60
2018-06-20T11:38:36.155Z,63.12
2018-06-20T11:39:36.076Z,62.93
2018-06-20T11:40:35.958Z,63.93
2018-06-20T11:41:35.967Z,61.21
2018-06-20T11:42:35.933Z,60.78
2018-06-20T11:43:35.986Z,60.82
2018-06-20T11:44:35.992Z,62.18
2018-06-20T11:45:35.890Z,62.47
2018-06-20T11:46:35.903Z,61.72
2018-06-20T11:47:35.865Z,59.67
2018-06-20T11:48:35.917Z,59.55
2018-06-20T11:49:35.840Z,60.49
2018-06-20T11:50:35.930Z,60.69
2018-06-20T11:51:35.824Z,60.82
2018-06-20T11:52:35.846Z,61.99
2018-06-20T11:53:35.788Z,58.77
2018-06-20T11:54:35.857Z,58.70
2018-06-20T11:55:35.766Z,58.99
2018-06-20T11:56:35.774Z,59.28
2018-06-20T11:57:35.737Z,59.48
2018-06-20T11:58:35.785Z,59.22
2018-06-20T11:59:35.714Z,61.56
2018-06-20T12:00:35.802Z,58.07
2018-06-20T12:01:35.692Z,60.10
2018-06-20T12:02:35.711Z,58.95
2018-06-20T12:03:35.665Z,58.76
2018-06-20T12:04:35.744Z,58.66
2018-06-20T12:05:35.641Z,58.37
2018-06-20T12:06:35.739Z,57.39
2018-06-20T12:07:35.623Z,56.00
2018-06-20T12:08:35.653Z,57.17
2018-06-20T12:09:35.590Z,57.46
2018-06-20T12:10:35.667Z,59.22
2018-06-20T12:11:35.566Z,57.29
2018-06-20T12:12:35.571Z,57.39
2018-06-20T12:13:35.546Z,55.63
2018-06-20T12:14:35.590Z,57.49
2018-06-20T12:15:35.518Z,57.59
2018-06-20T12:16:35.605Z,56.20
2018-06-20T12:17:35.496Z,57.88
2018-06-20T12:18:35.516Z,57.03
2018-06-20T12:19:35.473Z,57.23
2018-06-20T12:20:35.529Z,56.08
2018-06-20T12:21:35.447Z,55.79
2018-06-20T12:22:35.546Z,55.20
2018-06-20T12:23:35.424Z,54.03
2018-06-20T12:24:35.457Z,54.79
2018-06-20T12:25:35.406Z,55.76
2018-06-20T12:26:35.472Z,53.91
2018-06-20T12:27:35.377Z,56.54
2018-06-20T12:28:35.383Z,55.27
2018-06-20T12:29:35.360Z,55.86
2018-06-20T12:30:35.396Z,54.91
2018-06-20T12:31:35.336Z,55.40
2018-06-20T12:32:35.416Z,54.17
2018-06-20T12:33:35.309Z,55.05
2018-06-20T12:34:35.323Z,55.47
2018-06-20T12:35:35.290Z,55.57
2018-06-20T12:36:35.349Z,56.45
2018-06-20T12:37:35.265Z,54.52
2018-06-20T12:38:35.350Z,53.91
2018-06-20T12:39:35.238Z,54.32
2018-06-20T12:40:35.263Z,55.18
2018-06-20T12:41:35.222Z,54.81
2018-06-20T12:42:35.277Z,54.49
2018-06-20T12:43:35.203Z,55.76
2018-06-20T12:44:35.291Z,54.49
2018-06-20T12:45:35.192Z,55.15
2018-06-20T12:46:35.202Z,54.46
2018-06-20T12:47:35.152Z,55.37
2018-06-20T12:48:35.222Z,55.57
2018-06-20T12:49:35.132Z,54.59
2018-06-20T12:50:35.240Z,54.98
2018-06-20T12:51:35.107Z,55.15
2018-06-20T12:52:35.215Z,54.30
2018-06-20T12:53:35.088Z,55.76
2018-06-20T12:54:35.160Z,55.34